Time;durP1;ratioP1;P1;durP2;ratioP2;P2;SDS_P1;SDS_P2;PMS_P1;PMS_P2;Temp;Humidity;BMP_temperature;BMP_pressure;BME280_temperature;BME280_humidity;BME280_pressure;Samples;Min_cycle;Max_cycle;Signal;HPM_P1;HPM_P2
2021/12/24 00:01:57;;;;;;;19.20;14.60;;;;;;;;;;105760;1294;64772;-27
2021/12/24 00:04:24;;;;;;;19.40;14.90;;;;;;;;;;105768;1290;64693;-29
2021/12/24 00:06:52;;;;;;;20.10;14.30;;;;;;;;;;105826;1292;64875;-28
2021/12/24 00:09:22;;;;;;;18.50;14.50;;;;;;;;;;105830;1294;64850;-29
2021/12/24 00:11:50;;;;;;;18.90;14.30;;;;;;;;;;105653;1294;64893;-22
2021/12/24 00:14:17;;;;;;;19.00;14.10;;;;;;;;;;105849;1291;64718;-22
2021/12/24 00:16:50;;;;;;;19.10;14.90;;;;;;;;;;105841;1284;64960;-23
2021/12/24 00:35:35;;;;;;;20.10;14.50;;;;;;;;;;105788;1293;64783;-27
2021/12/24 00:38:03;;;;;;;18.60;13.40;;;;;;;;;;105823;1291;65958;-27
2021/12/24 00:40:31;;;;;;;18.20;14.20;;;;;;;;;;105799;1294;64949;-28
2021/12/24 00:42:59;;;;;;;18.10;14.00;;;;;;;;;;105805;1294;64893;-22
2021/12/24 00:45:27;;;;;;;17.00;13.20;;;;;;;;;;105776;1290;64858;-24
2021/12/24 00:47:54;;;;;;;16.20;13.20;;;;;;;;;;105798;1294;65525;-22
2021/12/24 00:50:24;;;;;;;18.50;14.20;;;;;;;;;;105833;1292;64829;-22
2021/12/24 00:52:57;;;;;;;17.40;14.30;;;;;;;;;;105805;1292;64712;-22
2021/12/24 00:55:25;;;;;;;15.70;13.30;;;;;;;;;;105828;1294;64847;-22
2021/12/24 00:57:53;;;;;;;16.70;13.60;;;;;;;;;;105407;1297;64911;-28
2021/12/24 01:00:32;;;;;;;19.10;13.60;;;;;;;;;;105824;1294;65993;-35
2021/12/24 01:03:00;;;;;;;16.50;13.40;;;;;;;;;;105801;1294;64865;-24
2021/12/24 01:05:27;;;;;;;19.40;14.10;;;;;;;;;;105808;1292;64932;-21
2021/12/24 01:07:54;;;;;;;18.10;14.00;;;;;;;;;;105788;1294;64760;-24
2021/12/24 01:10:24;;;;;;;18.20;14.50;;;;;;;;;;105401;1296;64780;-22
2021/12/24 01:12:51;;;;;;;18.40;14.50;;;;;;;;;;105819;1292;64769;-30
2021/12/24 01:15:18;;;;;;;16.90;13.40;;;;;;;;;;105823;1289;64925;-27
2021/12/24 01:18:58;;;;;;;17.90;13.30;;;;;;;;;;105787;1293;65102;-25
2021/12/24 01:20:47;;;;;;;18.40;14.00;;;;;;;;;;105297;1296;314411;-24
2021/12/24 01:25:58;;;;;;;18.30;14.00;;;;;;;;;;105632;1292;64866;-24
2021/12/24 01:45:00;;;;;;;18.00;13.60;;;;;;;;;;105790;1294;64904;-22
2021/12/24 01:47:27;;;;;;;16.90;14.40;;;;;;;;;;105807;1292;64918;-23
2021/12/24 01:49:54;;;;;;;17.10;14.50;;;;;;;;;;105837;1293;64878;-22
2021/12/24 01:52:21;;;;;;;18.10;13.90;;;;;;;;;;105784;1294;64849;-23
2021/12/24 01:54:48;;;;;;;19.20;14.10;;;;;;;;;;105616;1296;64742;-22
2021/12/24 01:57:15;;;;;;;19.00;14.00;;;;;;;;;;105811;1294;64768;-28
2021/12/24 01:59:42;;;;;;;17.20;14.10;;;;;;;;;;105640;1293;64942;-31
2021/12/24 02:02:09;;;;;;;17.50;14.10;;;;;;;;;;105805;1294;64966;-28
2021/12/24 02:04:36;;;;;;;17.60;13.80;;;;;;;;;;105806;1295;64835;-32
2021/12/24 02:07:04;;;;;;;18.90;14.30;;;;;;;;;;105802;1294;64802;-27
2021/12/24 02:09:31;;;;;;;17.80;14.10;;;;;;;;;;105838;1291;65072;-28
2021/12/24 02:11:58;;;;;;;17.10;13.20;;;;;;;;;;105810;1294;64704;-21
2021/12/24 02:14:33;;;;;;;17.40;13.60;;;;;;;;;;105810;1295;64726;-23
2021/12/24 02:28:25;;;;;;;17.30;13.80;;;;;;;;;;105141;1301;65091;-27
2021/12/24 02:30:53;;;;;;;15.60;13.60;;;;;;;;;;105171;1298;64925;-34
2021/12/24 02:33:20;;;;;;;16.60;13.50;;;;;;;;;;105481;1297;64818;-28
2021/12/24 02:35:47;;;;;;;17.70;13.80;;;;;;;;;;105791;1293;64898;-28
2021/12/24 02:38:14;;;;;;;16.50;13.60;;;;;;;;;;105779;1294;64830;-28
2021/12/24 02:40:41;;;;;;;17.50;13.20;;;;;;;;;;105870;1295;64768;-28
2021/12/24 02:43:13;;;;;;;17.50;13.90;;;;;;;;;;105792;1293;64864;-22
2021/12/24 02:45:42;;;;;;;17.00;13.60;;;;;;;;;;105810;1290;64768;-23
2021/12/24 02:48:35;;;;;;;17.10;13.50;;;;;;;;;;105631;1296;64812;-22
2021/12/24 02:56:26;;;;;;;16.50;13.70;;;;;;;;;;105805;1292;64808;-28
2021/12/24 02:58:53;;;;;;;15.60;12.70;;;;;;;;;;105828;1292;64863;-27
2021/12/24 03:01:25;;;;;;;15.20;13.10;;;;;;;;;;105804;1289;64878;-28
2021/12/24 03:03:53;;;;;;;16.70;13.10;;;;;;;;;;105650;1296;64860;-23
2021/12/24 03:06:22;;;;;;;16.30;13.20;;;;;;;;;;105800;1293;64725;-24
2021/12/24 03:08:50;;;;;;;15.40;13.30;;;;;;;;;;105624;1292;65065;-23
2021/12/24 03:11:17;;;;;;;15.20;13.10;;;;;;;;;;105806;1289;64839;-23
2021/12/24 03:13:45;;;;;;;16.30;13.00;;;;;;;;;;105825;1293;64987;-33
2021/12/24 03:16:12;;;;;;;15.70;12.70;;;;;;;;;;105602;1292;64773;-27
2021/12/24 03:18:41;;;;;;;15.30;12.70;;;;;;;;;;105815;1292;64875;-27
2021/12/24 03:21:14;;;;;;;14.70;12.40;;;;;;;;;;105849;1293;64841;-27
2021/12/24 03:26:34;;;;;;;15.50;12.80;;;;;;;;;;105552;1295;64862;-23
2021/12/24 03:29:02;;;;;;;14.60;13.00;;;;;;;;;;105600;1295;64744;-27
2021/12/24 03:31:29;;;;;;;14.60;12.00;;;;;;;;;;105827;1293;64837;-27
2021/12/24 03:33:56;;;;;;;15.50;12.90;;;;;;;;;;105818;1295;64846;-22
2021/12/24 03:36:24;;;;;;;14.70;12.30;;;;;;;;;;105613;1293;64819;-22
2021/12/24 03:38:51;;;;;;;14.20;11.50;;;;;;;;;;105813;1294;64823;-28
2021/12/24 03:41:19;;;;;;;15.00;12.60;;;;;;;;;;105821;1294;64957;-23
2021/12/24 03:43:46;;;;;;;15.70;12.40;;;;;;;;;;105838;1284;64878;-24
2021/12/24 03:46:17;;;;;;;14.20;12.20;;;;;;;;;;105810;1293;64841;-22
2021/12/24 03:56:31;;;;;;;15.20;11.90;;;;;;;;;;105812;1293;64812;-24
2021/12/24 03:58:59;;;;;;;14.20;12.30;;;;;;;;;;105827;1294;64843;-22
2021/12/24 04:01:26;;;;;;;16.30;12.30;;;;;;;;;;105808;1292;64886;-22
2021/12/24 04:03:52;;;;;;;14.70;12.00;;;;;;;;;;105804;1293;64872;-27
2021/12/24 04:06:19;;;;;;;14.60;11.90;;;;;;;;;;105833;1293;64848;-28
2021/12/24 04:08:46;;;;;;;16.00;12.10;;;;;;;;;;105828;1289;64763;-28
2021/12/24 04:11:13;;;;;;;15.10;12.10;;;;;;;;;;105836;1294;64845;-28
2021/12/24 04:13:40;;;;;;;14.90;11.60;;;;;;;;;;105821;1294;64875;-27
2021/12/24 04:16:08;;;;;;;14.10;12.10;;;;;;;;;;105787;1290;65593;-27
2021/12/24 04:18:43;;;;;;;13.90;11.90;;;;;;;;;;105840;1289;64865;-28
2021/12/24 04:26:41;;;;;;;14.30;11.20;;;;;;;;;;105820;1295;64786;-27
2021/12/24 04:29:10;;;;;;;14.10;11.40;;;;;;;;;;105811;1290;64809;-22
2021/12/24 04:31:44;;;;;;;14.80;11.90;;;;;;;;;;105829;1294;64735;-22
2021/12/24 04:34:13;;;;;;;13.50;11.60;;;;;;;;;;105826;1294;64878;-22
2021/12/24 04:39:35;;;;;;;13.10;11.10;;;;;;;;;;105707;1295;64851;-22
2021/12/24 04:51:06;;;;;;;13.50;11.30;;;;;;;;;;105730;1291;65451;-26
2021/12/24 05:02:05;;;;;;;13.60;10.30;;;;;;;;;;105830;1289;64847;-27
2021/12/24 05:04:35;;;;;;;14.10;11.40;;;;;;;;;;105817;1294;64870;-29
2021/12/24 05:07:23;;;;;;;13.20;11.10;;;;;;;;;;105851;1290;65634;-22
2021/12/24 05:09:50;;;;;;;13.40;11.40;;;;;;;;;;105800;1294;64780;-22
2021/12/24 05:12:18;;;;;;;13.80;11.20;;;;;;;;;;105700;1292;64812;-28
2021/12/24 05:14:44;;;;;;;14.10;10.70;;;;;;;;;;105588;1296;64807;-28
2021/12/24 05:17:25;;;;;;;13.10;10.40;;;;;;;;;;105742;1292;64996;-22
2021/12/24 05:22:38;;;;;;;12.90;10.50;;;;;;;;;;105830;1292;64894;-28
2021/12/24 05:25:05;;;;;;;12.10;10.60;;;;;;;;;;105783;1290;64831;-27
2021/12/24 05:27:34;;;;;;;12.90;10.30;;;;;;;;;;105833;1292;64828;-22
2021/12/24 05:30:00;;;;;;;11.90;10.40;;;;;;;;;;105773;1294;64881;-22
2021/12/24 05:32:27;;;;;;;13.00;10.60;;;;;;;;;;105762;1290;64840;-23
2021/12/24 05:34:54;;;;;;;12.20;10.30;;;;;;;;;;105529;1293;64843;-22
2021/12/24 05:37:21;;;;;;;13.00;9.80;;;;;;;;;;105888;1294;64893;-22
2021/12/24 05:39:48;;;;;;;11.80;9.90;;;;;;;;;;105796;1290;64771;-22
2021/12/24 05:42:15;;;;;;;12.10;10.30;;;;;;;;;;105844;1290;64845;-22
2021/12/24 05:44:43;;;;;;;12.70;10.10;;;;;;;;;;105841;1291;64908;-22
2021/12/24 05:47:10;;;;;;;11.50;10.10;;;;;;;;;;105819;1291;64844;-22
2021/12/24 05:49:37;;;;;;;12.20;9.80;;;;;;;;;;105799;1291;64891;-23
2021/12/24 05:52:04;;;;;;;12.60;10.70;;;;;;;;;;105807;1288;64821;-27
2021/12/24 05:54:32;;;;;;;11.40;9.60;;;;;;;;;;105805;1293;64846;-28
2021/12/24 05:56:59;;;;;;;11.70;10.10;;;;;;;;;;105844;1292;64934;-21
2021/12/24 05:59:26;;;;;;;12.20;9.80;;;;;;;;;;105614;1294;64781;-22
2021/12/24 06:01:54;;;;;;;13.20;10.00;;;;;;;;;;105827;1291;65464;-27
2021/12/24 06:04:21;;;;;;;11.60;9.70;;;;;;;;;;105780;1290;64745;-28
2021/12/24 06:06:48;;;;;;;11.00;9.80;;;;;;;;;;105820;1291;64900;-29
2021/12/24 06:09:15;;;;;;;12.30;10.10;;;;;;;;;;105796;1294;64782;-28
2021/12/24 06:11:42;;;;;;;13.30;10.50;;;;;;;;;;105824;1291;64840;-23
2021/12/24 06:14:11;;;;;;;10.90;9.70;;;;;;;;;;105610;1293;65418;-23
2021/12/24 06:16:59;;;;;;;11.40;9.40;;;;;;;;;;105699;1295;64748;-28
2021/12/24 06:19:26;;;;;;;13.90;10.00;;;;;;;;;;105654;1294;64923;-29
2021/12/24 06:21:54;;;;;;;11.80;9.70;;;;;;;;;;105852;1291;65558;-22
2021/12/24 06:24:21;;;;;;;11.60;10.00;;;;;;;;;;105790;1290;64848;-22
2021/12/24 06:26:49;;;;;;;11.80;9.40;;;;;;;;;;105839;1291;64709;-22
2021/12/24 06:29:16;;;;;;;12.30;9.70;;;;;;;;;;105801;1291;64880;-23
2021/12/24 06:31:44;;;;;;;11.90;9.90;;;;;;;;;;105808;1291;64780;-23
2021/12/24 06:34:11;;;;;;;11.40;9.50;;;;;;;;;;105817;1293;64856;-24
2021/12/24 06:36:41;;;;;;;11.00;9.20;;;;;;;;;;105874;1291;64835;-28
2021/12/24 06:39:08;;;;;;;10.80;9.60;;;;;;;;;;105823;1291;64768;-28
2021/12/24 06:41:35;;;;;;;10.90;9.20;;;;;;;;;;105826;1293;64791;-28
2021/12/24 06:44:04;;;;;;;10.70;9.10;;;;;;;;;;105808;1294;65976;-28
2021/12/24 06:46:31;;;;;;;10.80;9.00;;;;;;;;;;105714;1292;64805;-24
2021/12/24 06:49:01;;;;;;;10.90;9.10;;;;;;;;;;105806;1290;64851;-27
2021/12/24 06:51:28;;;;;;;11.00;9.40;;;;;;;;;;105754;1291;64849;-27
2021/12/24 06:53:55;;;;;;;10.80;9.50;;;;;;;;;;105816;1290;64757;-32
2021/12/24 06:56:22;;;;;;;10.80;9.10;;;;;;;;;;105836;1294;64852;-36
2021/12/24 06:58:49;;;;;;;10.60;9.20;;;;;;;;;;105815;1290;64752;-28
2021/12/24 07:01:16;;;;;;;11.90;9.20;;;;;;;;;;105605;1294;64818;-28
2021/12/24 07:03:43;;;;;;;11.20;9.30;;;;;;;;;;105548;1296;64843;-27
2021/12/24 07:06:10;;;;;;;12.40;9.30;;;;;;;;;;105759;1289;64853;-27
2021/12/24 07:08:37;;;;;;;10.50;9.20;;;;;;;;;;105823;1293;64861;-22
2021/12/24 07:11:04;;;;;;;11.10;8.30;;;;;;;;;;105788;1289;64933;-23
2021/12/24 07:13:31;;;;;;;10.50;9.20;;;;;;;;;;105854;1292;64941;-25
2021/12/24 07:15:58;;;;;;;10.90;8.40;;;;;;;;;;105827;1293;64848;-22
2021/12/24 07:18:25;;;;;;;10.40;9.00;;;;;;;;;;105829;1291;64815;-31
2021/12/24 07:20:52;;;;;;;10.70;9.00;;;;;;;;;;105805;1289;64976;-23
2021/12/24 07:23:19;;;;;;;10.90;8.80;;;;;;;;;;105650;1291;64873;-24
2021/12/24 07:25:46;;;;;;;11.20;9.80;;;;;;;;;;105855;1291;64778;-24
2021/12/24 07:28:13;;;;;;;11.00;8.60;;;;;;;;;;105829;1290;64771;-23
2021/12/24 07:30:40;;;;;;;10.80;8.50;;;;;;;;;;105810;1289;64771;-23
2021/12/24 07:33:07;;;;;;;9.70;8.50;;;;;;;;;;105581;1293;64744;-22
2021/12/24 07:35:34;;;;;;;10.10;8.40;;;;;;;;;;105843;1290;64851;-23
2021/12/24 07:38:01;;;;;;;11.10;8.80;;;;;;;;;;105816;1289;64771;-23
2021/12/24 07:40:28;;;;;;;10.30;8.50;;;;;;;;;;105831;1290;64823;-27
2021/12/24 07:42:55;;;;;;;10.80;9.10;;;;;;;;;;105818;1294;64891;-21
2021/12/24 07:45:23;;;;;;;10.30;8.80;;;;;;;;;;105833;1291;64827;-22
2021/12/24 07:48:06;;;;;;;10.20;8.50;;;;;;;;;;105621;1295;64788;-28
2021/12/24 07:53:02;;;;;;;10.60;8.70;;;;;;;;;;105631;1296;64925;-32
2021/12/24 07:55:29;;;;;;;9.50;8.30;;;;;;;;;;105837;1291;64722;-31
2021/12/24 07:57:57;;;;;;;10.50;8.50;;;;;;;;;;105848;1290;64837;-28
2021/12/24 08:00:26;;;;;;;11.10;8.50;;;;;;;;;;105815;1293;64945;-28
2021/12/24 08:02:54;;;;;;;10.60;9.00;;;;;;;;;;105845;1290;65303;-41
2021/12/24 08:05:25;;;;;;;10.20;8.70;;;;;;;;;;105821;1290;64878;-37
2021/12/24 08:07:54;;;;;;;9.80;8.20;;;;;;;;;;105863;1291;64698;-22
2021/12/24 08:10:23;;;;;;;9.80;8.60;;;;;;;;;;105583;1293;64957;-22
2021/12/24 08:12:51;;;;;;;13.80;8.30;;;;;;;;;;105813;1290;64906;-29
2021/12/24 08:15:18;;;;;;;10.60;8.20;;;;;;;;;;105791;1289;64884;-32
2021/12/24 08:17:45;;;;;;;12.20;8.60;;;;;;;;;;105841;1285;64731;-26
2021/12/24 08:20:13;;;;;;;10.00;8.00;;;;;;;;;;105845;1290;64696;-22
2021/12/24 08:22:41;;;;;;;9.60;8.50;;;;;;;;;;105855;1290;64839;-22
2021/12/24 08:25:09;;;;;;;9.70;8.40;;;;;;;;;;105895;1291;64776;-22
2021/12/24 08:27:38;;;;;;;15.50;8.50;;;;;;;;;;105858;1294;64834;-24
2021/12/24 08:30:07;;;;;;;11.70;7.70;;;;;;;;;;105792;1289;64809;-28
2021/12/24 08:32:37;;;;;;;10.20;8.20;;;;;;;;;;105859;1289;64952;-26
2021/12/24 08:35:10;;;;;;;10.10;8.50;;;;;;;;;;105828;1290;64802;-28
2021/12/24 08:37:36;;;;;;;10.30;8.40;;;;;;;;;;105706;1292;64842;-26
2021/12/24 08:40:04;;;;;;;11.40;8.90;;;;;;;;;;105593;1296;64781;-30
2021/12/24 08:42:31;;;;;;;9.40;7.60;;;;;;;;;;105880;1290;65446;-27
2021/12/24 08:44:58;;;;;;;10.70;8.30;;;;;;;;;;105684;1290;64756;-29
2021/12/24 08:47:25;;;;;;;11.60;8.70;;;;;;;;;;105820;1290;64807;-26
2021/12/24 08:49:52;;;;;;;11.90;8.00;;;;;;;;;;105814;1290;66273;-26
2021/12/24 08:52:21;;;;;;;9.60;7.60;;;;;;;;;;105604;1295;64959;-27
2021/12/24 08:54:48;;;;;;;8.90;7.30;;;;;;;;;;105690;1294;64926;-26
2021/12/24 08:57:16;;;;;;;10.80;7.70;;;;;;;;;;105604;1294;64907;-23
2021/12/24 08:59:43;;;;;;;10.90;7.60;;;;;;;;;;105592;1294;64855;-22
2021/12/24 09:02:11;;;;;;;10.40;7.20;;;;;;;;;;105838;1290;65618;-21
2021/12/24 09:04:38;;;;;;;8.70;7.10;;;;;;;;;;105856;1287;64875;-23
2021/12/24 09:07:05;;;;;;;10.10;7.40;;;;;;;;;;105668;1294;64694;-22
2021/12/24 09:09:32;;;;;;;7.80;6.70;;;;;;;;;;105804;1291;64923;-22
2021/12/24 09:11:59;;;;;;;9.00;7.00;;;;;;;;;;105669;1294;64923;-26
2021/12/24 09:14:26;;;;;;;10.00;7.30;;;;;;;;;;105839;1290;64882;-26
2021/12/24 09:16:54;;;;;;;11.00;7.80;;;;;;;;;;105864;1290;64936;-23
2021/12/24 09:19:25;;;;;;;9.50;7.60;;;;;;;;;;105630;1294;213953;-30
2021/12/24 09:21:55;;;;;;;9.00;7.00;;;;;;;;;;105708;1294;64778;-34
2021/12/24 09:24:24;;;;;;;9.90;6.90;;;;;;;;;;105685;1284;64856;-22
2021/12/24 09:26:56;;;;;;;9.90;7.90;;;;;;;;;;105657;1291;64794;-29
2021/12/24 09:29:23;;;;;;;9.30;7.80;;;;;;;;;;105666;1294;64782;-30
2021/12/24 09:31:50;;;;;;;8.90;7.10;;;;;;;;;;105821;1291;64779;-27
2021/12/24 09:34:17;;;;;;;10.60;7.80;;;;;;;;;;105828;1290;64925;-26
2021/12/24 09:36:45;;;;;;;9.40;7.60;;;;;;;;;;105625;1285;64917;-26
2021/12/24 09:39:12;;;;;;;8.60;7.00;;;;;;;;;;105799;1291;64881;-27
2021/12/24 09:41:40;;;;;;;9.30;7.50;;;;;;;;;;105904;1291;65427;-24
2021/12/24 09:44:07;;;;;;;9.00;7.20;;;;;;;;;;105904;1291;64681;-23
2021/12/24 09:46:35;;;;;;;11.90;8.00;;;;;;;;;;105922;1290;64813;-23
2021/12/24 09:49:03;;;;;;;10.70;7.80;;;;;;;;;;105940;1291;64892;-26
2021/12/24 09:51:36;;;;;;;10.10;8.20;;;;;;;;;;105685;1294;64785;-26
2021/12/24 09:54:07;;;;;;;10.30;8.20;;;;;;;;;;105706;1293;64751;-28
2021/12/24 09:56:34;;;;;;;9.90;7.60;;;;;;;;;;105703;1294;64872;-23
2021/12/24 09:59:01;;;;;;;11.00;7.80;;;;;;;;;;105650;1295;64891;-26
2021/12/24 10:01:28;;;;;;;11.40;8.20;;;;;;;;;;105330;1296;64877;-27
2021/12/24 10:04:00;;;;;;;10.70;7.50;;;;;;;;;;105716;1293;64826;-27
2021/12/24 10:06:27;;;;;;;11.40;7.50;;;;;;;;;;105501;1293;64927;-28
2021/12/24 10:09:03;;;;;;;11.10;8.60;;;;;;;;;;105672;1292;64958;-22
2021/12/24 10:11:45;;;;;;;10.60;8.10;;;;;;;;;;105685;1293;64855;-25
2021/12/24 10:14:14;;;;;;;11.20;8.40;;;;;;;;;;105562;1296;64884;-23
2021/12/24 10:16:42;;;;;;;9.90;8.00;;;;;;;;;;105695;1293;64847;-25
2021/12/24 10:19:09;;;;;;;11.40;8.30;;;;;;;;;;105720;1294;64832;-26
2021/12/24 10:21:37;;;;;;;11.20;8.70;;;;;;;;;;105684;1291;64959;-22
2021/12/24 10:24:16;;;;;;;10.60;8.20;;;;;;;;;;105684;1293;65074;-22
2021/12/24 10:26:45;;;;;;;9.20;8.20;;;;;;;;;;105669;1293;64908;-26
2021/12/24 10:29:14;;;;;;;10.60;7.90;;;;;;;;;;105364;1292;64863;-26
2021/12/24 10:31:44;;;;;;;11.00;8.10;;;;;;;;;;105503;1293;64745;-27
2021/12/24 10:34:22;;;;;;;12.00;8.40;;;;;;;;;;105622;1294;64914;-23
2021/12/24 10:36:51;;;;;;;11.60;8.80;;;;;;;;;;105585;1293;64900;-22
2021/12/24 10:39:19;;;;;;;10.60;8.60;;;;;;;;;;105607;1293;64859;-23
2021/12/24 10:41:48;;;;;;;10.30;8.40;;;;;;;;;;105368;1296;64853;-26
2021/12/24 10:44:16;;;;;;;11.50;8.70;;;;;;;;;;105754;1293;64737;-27
2021/12/24 10:47:12;;;;;;;9.70;7.50;;;;;;;;;;105676;1292;64897;-25
2021/12/24 10:52:45;;;;;;;10.30;8.30;;;;;;;;;;105590;1293;64878;-22
2021/12/24 10:55:03;;;;;;;11.80;8.10;;;;;;;;;;105649;1285;64949;-29
2021/12/24 10:57:34;;;;;;;9.70;7.90;;;;;;;;;;105832;1291;64831;-22
2021/12/24 11:00:04;;;;;;;10.70;8.40;;;;;;;;;;105829;1291;64848;-22
2021/12/24 11:02:33;;;;;;;11.20;7.80;;;;;;;;;;105871;1293;65469;-22
2021/12/24 11:05:01;;;;;;;10.50;8.00;;;;;;;;;;105857;1290;64803;-23
2021/12/24 11:07:39;;;;;;;10.40;7.60;;;;;;;;;;105843;1294;64798;-24
2021/12/24 11:10:12;;;;;;;10.40;8.50;;;;;;;;;;105503;1296;65487;-22
2021/12/24 11:12:49;;;;;;;12.50;8.20;;;;;;;;;;105861;1283;64837;-22
2021/12/24 11:15:28;;;;;;;10.60;8.10;;;;;;;;;;105890;1290;65532;-22
2021/12/24 11:17:56;;;;;;;10.40;8.20;;;;;;;;;;105827;1291;64800;-26
2021/12/24 11:20:25;;;;;;;12.00;8.30;;;;;;;;;;105848;1290;64674;-26
2021/12/24 11:23:03;;;;;;;10.20;8.20;;;;;;;;;;105880;1290;64761;-23
2021/12/24 11:25:33;;;;;;;9.00;7.60;;;;;;;;;;105850;1290;64863;-22
2021/12/24 11:28:00;;;;;;;10.00;8.10;;;;;;;;;;105841;1290;64740;-24
2021/12/24 11:30:27;;;;;;;9.40;7.20;;;;;;;;;;105522;1293;64952;-22
2021/12/24 11:32:55;;;;;;;10.20;7.60;;;;;;;;;;105844;1294;64765;-27
2021/12/24 11:35:23;;;;;;;10.30;8.10;;;;;;;;;;105860;1290;64743;-25
2021/12/24 11:37:53;;;;;;;10.30;7.70;;;;;;;;;;105661;1290;64870;-21
2021/12/24 11:40:23;;;;;;;10.60;8.00;;;;;;;;;;105532;1290;65015;-27
2021/12/24 11:43:03;;;;;;;11.10;8.00;;;;;;;;;;105532;1293;64770;-23
2021/12/24 11:45:33;;;;;;;9.00;7.30;;;;;;;;;;105826;1293;64932;-22
2021/12/24 11:48:02;;;;;;;9.50;8.00;;;;;;;;;;105544;1294;64846;-28
2021/12/24 11:50:29;;;;;;;11.00;7.80;;;;;;;;;;105873;1291;64901;-27
2021/12/24 11:52:59;;;;;;;11.40;7.80;;;;;;;;;;105798;1293;64839;-24
2021/12/24 11:55:27;;;;;;;10.50;7.90;;;;;;;;;;105635;1292;64764;-24
2021/12/24 11:57:56;;;;;;;11.30;7.90;;;;;;;;;;105647;1293;64775;-26
2021/12/24 12:00:25;;;;;;;10.80;7.90;;;;;;;;;;105512;1293;64880;-33
2021/12/24 12:02:52;;;;;;;9.90;8.20;;;;;;;;;;105712;1292;64845;-27
2021/12/24 12:05:19;;;;;;;9.80;7.50;;;;;;;;;;105701;1291;64800;-23
2021/12/24 12:07:46;;;;;;;11.30;7.90;;;;;;;;;;105664;1293;64810;-23
2021/12/24 12:10:34;;;;;;;10.00;7.30;;;;;;;;;;105667;1293;64835;-23
2021/12/24 12:13:01;;;;;;;11.90;7.90;;;;;;;;;;105671;1293;64851;-27
2021/12/24 12:15:30;;;;;;;10.20;7.40;;;;;;;;;;105682;1293;64803;-27
2021/12/24 12:17:58;;;;;;;9.90;8.10;;;;;;;;;;105652;1293;64706;-27
2021/12/24 12:20:41;;;;;;;10.50;7.70;;;;;;;;;;105719;1291;64706;-22
2021/12/24 12:23:15;;;;;;;8.70;6.90;;;;;;;;;;105676;1293;64750;-23
2021/12/24 12:25:42;;;;;;;;;;;;;;;;;;105690;1294;64753;-32
2021/12/24 12:28:14;;;;;;;10.20;7.50;;;;;;;;;;105657;1293;64890;-22
2021/12/24 12:30:49;;;;;;;10.20;7.00;;;;;;;;;;105692;1291;64863;-22
2021/12/24 12:33:17;;;;;;;10.00;7.30;;;;;;;;;;105665;1291;64798;-27
2021/12/24 12:35:51;;;;;;;9.80;7.50;;;;;;;;;;105654;1294;64789;-27
2021/12/24 12:38:39;;;;;;;9.50;7.40;;;;;;;;;;105685;1294;64893;-27
2021/12/24 12:41:19;;;;;;;12.50;7.60;;;;;;;;;;105565;1294;64919;-23
2021/12/24 12:43:47;;;;;;;9.60;7.10;;;;;;;;;;105687;1293;64861;-27
2021/12/24 12:46:31;;;;;;;13.50;7.90;;;;;;;;;;105638;1291;64772;-25
2021/12/24 12:49:00;;;;;;;9.40;7.10;;;;;;;;;;105604;1292;64854;-28
2021/12/24 12:51:47;;;;;;;10.00;6.90;;;;;;;;;;105499;1293;64942;-22
2021/12/24 12:54:29;;;;;;;9.40;8.00;;;;;;;;;;105782;1287;64807;-28
2021/12/24 12:57:16;;;;;;;11.30;7.90;;;;;;;;;;105844;1291;64870;-26
2021/12/24 13:00:03;;;;;;;11.00;7.20;;;;;;;;;;105687;1293;65036;-27
2021/12/24 13:02:49;;;;;;;9.30;7.20;;;;;;;;;;105798;1291;64738;-23
2021/12/24 13:05:16;;;;;;;12.10;8.00;;;;;;;;;;105812;1291;64861;-21
2021/12/24 13:07:43;;;;;;;8.60;6.70;;;;;;;;;;105863;1290;64837;-36
2021/12/24 13:10:12;;;;;;;10.10;7.00;;;;;;;;;;105833;1290;64740;-29
2021/12/24 13:12:39;;;;;;;10.80;7.40;;;;;;;;;;105654;1290;64846;-23
2021/12/24 13:15:15;;;;;;;8.80;7.10;;;;;;;;;;105784;1291;64819;-23
2021/12/24 13:17:48;;;;;;;8.40;6.70;;;;;;;;;;105856;1294;64840;-30
2021/12/24 13:20:20;;;;;;;8.90;6.90;;;;;;;;;;105817;1290;64801;-23
2021/12/24 13:22:47;;;;;;;8.60;6.80;;;;;;;;;;105843;1290;64735;-24
2021/12/24 13:25:15;;;;;;;10.30;6.30;;;;;;;;;;105808;1291;64739;-23
2021/12/24 13:27:47;;;;;;;9.50;6.80;;;;;;;;;;105838;1290;64968;-23
2021/12/24 13:30:21;;;;;;;10.10;7.10;;;;;;;;;;105870;1290;64840;-23
2021/12/24 13:32:56;;;;;;;10.20;6.80;;;;;;;;;;105844;1290;65404;-23
2021/12/24 13:35:25;;;;;;;9.20;6.50;;;;;;;;;;105672;1293;65466;-22
2021/12/24 13:37:54;;;;;;;9.90;6.70;;;;;;;;;;105816;1290;64842;-24
2021/12/24 13:40:22;;;;;;;11.00;7.80;;;;;;;;;;105841;1290;64709;-23
2021/12/24 13:42:53;;;;;;;8.60;6.60;;;;;;;;;;105781;1290;64814;-23
2021/12/24 13:45:21;;;;;;;11.00;6.30;;;;;;;;;;105826;1290;64776;-22
2021/12/24 13:47:58;;;;;;;9.90;7.30;;;;;;;;;;105806;1290;64972;-27
2021/12/24 13:54:32;;;;;;;9.60;6.30;;;;;;;;;;105825;1290;64665;-27
2021/12/24 13:56:06;;;;;;;8.90;6.70;;;;;;;;;;105610;1291;64871;-27
2021/12/24 13:58:32;;;;;;;9.30;6.70;;;;;;;;;;105838;1290;64761;-26
2021/12/24 14:01:00;;;;;;;10.30;6.80;;;;;;;;;;105835;1291;64769;-22
2021/12/24 14:03:29;;;;;;;10.80;7.00;;;;;;;;;;105629;1293;64853;-27
2021/12/24 14:05:58;;;;;;;11.60;6.90;;;;;;;;;;105828;1290;64778;-26
2021/12/24 14:08:27;;;;;;;9.40;6.80;;;;;;;;;;105826;1290;64965;-22
2021/12/24 14:11:07;;;;;;;10.30;7.00;;;;;;;;;;105840;1290;64872;-23
2021/12/24 14:13:40;;;;;;;11.20;7.20;;;;;;;;;;105662;1294;64717;-23
2021/12/24 14:24:11;;;;;;;9.40;6.70;;;;;;;;;;105821;1290;64957;-22
2021/12/24 14:26:42;;;;;;;9.00;6.20;;;;;;;;;;105873;1292;64758;-22
2021/12/24 14:29:10;;;;;;;11.60;7.20;;;;;;;;;;105850;1290;65466;-23
2021/12/24 14:31:53;;;;;;;10.50;6.70;;;;;;;;;;105531;1291;64818;-23
2021/12/24 14:34:27;;;;;;;10.30;7.20;;;;;;;;;;105826;1291;64790;-23
2021/12/24 14:37:17;;;;;;;10.30;7.80;;;;;;;;;;105825;1292;64730;-22
2021/12/24 14:39:46;;;;;;;11.10;7.50;;;;;;;;;;105746;1290;64882;-22
2021/12/24 14:42:19;;;;;;;12.70;8.40;;;;;;;;;;105633;1292;64822;-27
2021/12/24 14:44:47;;;;;;;12.00;8.40;;;;;;;;;;105874;1290;64849;-26
2021/12/24 14:47:18;;;;;;;11.60;7.60;;;;;;;;;;105902;1291;65651;-28
2021/12/24 14:49:44;;;;;;;10.60;7.00;;;;;;;;;;105878;1291;64850;-25
2021/12/24 14:52:15;;;;;;;9.90;6.80;;;;;;;;;;105823;1290;64787;-23
2021/12/24 14:55:01;;;;;;;12.90;8.00;;;;;;;;;;105816;1290;64874;-37
2021/12/24 14:57:28;;;;;;;11.50;8.00;;;;;;;;;;105828;1291;64897;-27
2021/12/24 14:59:55;;;;;;;12.10;8.00;;;;;;;;;;105834;1291;64964;-27
2021/12/24 15:02:22;;;;;;;8.40;6.60;;;;;;;;;;105821;1294;64768;-28
2021/12/24 15:04:55;;;;;;;10.90;7.30;;;;;;;;;;105814;1290;64831;-56
2021/12/24 15:07:30;;;;;;;11.70;7.30;;;;;;;;;;105827;1291;64853;-25
2021/12/24 15:10:07;;;;;;;10.80;6.70;;;;;;;;;;105823;1294;64882;-25
2021/12/24 15:12:40;;;;;;;13.20;7.40;;;;;;;;;;105820;1294;64889;-24
2021/12/24 15:15:07;;;;;;;12.20;7.00;;;;;;;;;;105825;1294;64957;-25
2021/12/24 15:17:38;;;;;;;11.40;7.00;;;;;;;;;;105853;1291;64861;-25
2021/12/24 15:20:07;;;;;;;8.50;6.30;;;;;;;;;;105889;1290;64838;-25
2021/12/24 15:22:34;;;;;;;11.30;6.90;;;;;;;;;;105866;1290;64819;-25
2021/12/24 15:25:02;;;;;;;12.00;7.70;;;;;;;;;;105794;1291;64801;-26
2021/12/24 15:27:35;;;;;;;10.10;6.90;;;;;;;;;;105790;1291;64881;-22
2021/12/24 15:30:12;;;;;;;10.70;6.90;;;;;;;;;;105824;1294;64842;-22
2021/12/24 15:32:38;;;;;;;10.50;7.10;;;;;;;;;;105802;1291;64838;-25
2021/12/24 15:35:06;;;;;;;11.00;7.00;;;;;;;;;;105776;1291;64774;-33
2021/12/24 15:37:33;;;;;;;12.10;6.80;;;;;;;;;;105846;1294;64837;-22
2021/12/24 15:40:00;;;;;;;9.40;6.80;;;;;;;;;;105804;1294;64859;-22
2021/12/24 15:42:29;;;;;;;9.10;6.10;;;;;;;;;;105825;1292;64807;-22
2021/12/24 15:44:56;;;;;;;12.70;7.20;;;;;;;;;;105796;1290;64848;-21
2021/12/24 15:47:25;;;;;;;11.70;7.00;;;;;;;;;;105780;1292;64768;-25
2021/12/24 15:49:52;;;;;;;11.20;7.00;;;;;;;;;;105839;1294;64909;-25
2021/12/24 15:52:20;;;;;;;9.00;6.90;;;;;;;;;;105783;1291;64693;-22
2021/12/24 15:54:46;;;;;;;10.20;7.60;;;;;;;;;;105687;1293;64961;-22
2021/12/24 15:57:13;;;;;;;10.50;7.60;;;;;;;;;;105726;1293;64894;-25
2021/12/24 15:59:41;;;;;;;11.30;7.60;;;;;;;;;;105634;1288;64848;-25
2021/12/24 16:02:08;;;;;;;10.50;7.00;;;;;;;;;;105691;1283;64785;-23
2021/12/24 16:04:35;;;;;;;10.60;7.00;;;;;;;;;;105666;1294;64779;-22
2021/12/24 16:07:03;;;;;;;9.30;7.50;;;;;;;;;;105712;1295;64885;-22
2021/12/24 16:09:30;;;;;;;10.60;7.40;;;;;;;;;;105727;1295;64818;-22
2021/12/24 16:11:57;;;;;;;10.60;7.20;;;;;;;;;;105690;1294;64842;-22
2021/12/24 16:14:26;;;;;;;12.90;7.80;;;;;;;;;;105611;1294;64865;-22
2021/12/24 16:16:54;;;;;;;10.50;7.20;;;;;;;;;;105722;1295;64864;-26
2021/12/24 16:19:22;;;;;;;10.20;7.10;;;;;;;;;;105727;1295;64893;-26